createdAt,value
2018-01-04T00:00:04.639Z,6.40
2018-01-04T00:02:32.062Z,6.50
2018-01-04T00:04:59.490Z,6.50
2018-01-04T00:07:27.715Z,6.30
2018-01-04T00:09:55.186Z,6.30
2018-01-04T00:12:22.638Z,6.40
2018-01-04T00:14:50.306Z,6.50
2018-01-04T00:17:17.866Z,6.50
2018-01-04T00:19:45.478Z,6.50
2018-01-04T00:22:13.702Z,6.40
2018-01-04T00:24:41.244Z,6.40
2018-01-04T00:27:08.917Z,6.50
2018-01-04T00:29:37.237Z,6.50
2018-01-04T00:32:04.754Z,6.50
2018-01-04T00:34:32.223Z,6.50
2018-01-04T00:36:59.679Z,6.50
2018-01-04T00:39:27.101Z,6.50
2018-01-04T00:41:54.585Z,6.50
2018-01-04T00:44:22.014Z,6.60
2018-01-04T00:46:49.433Z,6.60
2018-01-04T00:49:16.867Z,6.60
2018-01-04T00:51:44.425Z,6.60
2018-01-04T00:54:11.886Z,6.60
2018-01-04T00:56:39.650Z,6.50
2018-01-04T00:59:07.273Z,6.60
2018-01-04T01:01:34.714Z,6.60
2018-01-04T01:04:02.897Z,6.70
2018-01-04T01:06:30.394Z,6.70
2018-01-04T01:08:58.034Z,6.60
2018-01-04T01:11:25.545Z,6.70
2018-01-04T01:13:53.133Z,6.70
2018-01-04T01:16:20.847Z,6.70
2018-01-04T01:18:48.609Z,6.70
2018-01-04T01:21:16.246Z,6.70
2018-01-04T01:23:43.835Z,6.60
2018-01-04T01:26:11.261Z,6.60
2018-01-04T01:28:38.681Z,6.60
2018-01-04T01:31:06.209Z,6.60
2018-01-04T01:33:33.969Z,6.60
2018-01-04T01:36:01.438Z,6.50
2018-01-04T01:38:28.887Z,6.50
2018-01-04T01:40:56.649Z,6.50
2018-01-04T01:43:24.409Z,6.40
2018-01-04T01:45:51.839Z,6.50
2018-01-04T01:48:19.284Z,6.50
2018-01-04T01:50:46.786Z,6.50
2018-01-04T01:53:14.426Z,6.50
2018-01-04T01:55:41.855Z,6.60
2018-01-04T01:58:10.085Z,6.60
2018-01-04T02:00:37.541Z,6.60
2018-01-04T02:03:05.305Z,6.60
2018-01-04T02:05:32.743Z,6.70
2018-01-04T02:08:00.225Z,6.70
2018-01-04T02:10:27.763Z,6.60
2018-01-04T02:12:55.440Z,6.70
2018-01-04T02:15:23.209Z,6.70
2018-01-04T02:17:51.593Z,6.70
2018-01-04T02:20:30.735Z,6.70
2018-01-04T02:23:09.880Z,6.70
2018-01-04T02:25:46.225Z,6.70
2018-01-04T02:31:27.874Z,6.60
2018-01-04T02:34:07.278Z,6.70
2018-01-04T02:36:46.438Z,6.70
2018-01-04T02:39:25.847Z,6.70
2018-01-04T02:42:05.173Z,6.80
2018-01-04T02:44:39.461Z,6.70
2018-01-04T02:47:06.887Z,6.70
2018-01-04T02:49:34.314Z,6.70
2018-01-04T02:52:01.759Z,6.70
2018-01-04T02:54:29.319Z,6.80
2018-01-04T02:56:56.750Z,6.70
2018-01-04T02:59:24.245Z,6.80
2018-01-04T03:01:51.693Z,6.80
2018-01-04T03:04:19.122Z,6.80
2018-01-04T03:06:46.538Z,6.90
2018-01-04T03:09:13.974Z,6.80
2018-01-04T03:11:41.466Z,6.80
2018-01-04T03:14:08.990Z,6.80
2018-01-04T03:16:36.450Z,6.70
2018-01-04T03:19:03.906Z,6.80
2018-01-04T03:21:31.541Z,6.80
2018-01-04T03:23:59.029Z,6.70
2018-01-04T03:26:31.999Z,6.60
2018-01-04T03:29:04.962Z,6.80
2018-01-04T03:31:38.970Z,6.90
2018-01-04T03:34:24.094Z,6.80
2018-01-04T03:36:57.042Z,6.80
2018-01-04T03:39:24.465Z,6.70
2018-01-04T03:41:57.678Z,6.70
2018-01-04T03:44:30.817Z,6.80
2018-01-04T03:47:03.992Z,6.60
2018-01-04T03:49:52.246Z,6.70
2018-01-04T03:52:35.270Z,6.70
2018-01-04T03:55:08.274Z,6.70
2018-01-04T03:57:41.614Z,6.70
2018-01-04T04:00:15.501Z,6.70
2018-01-04T04:02:48.754Z,6.60
2018-01-04T04:05:21.943Z,6.70
2018-01-04T04:07:49.374Z,6.60
2018-01-04T04:10:16.802Z,6.60
2018-01-04T04:12:44.225Z,6.60
2018-01-04T04:15:11.694Z,6.60
2018-01-04T04:17:39.246Z,6.60
2018-01-04T04:20:06.877Z,6.50
2018-01-04T04:22:34.461Z,6.50
2018-01-04T04:25:01.918Z,6.60
2018-01-04T04:27:29.558Z,6.50
2018-01-04T04:29:57.051Z,6.50
2018-01-04T04:32:24.602Z,6.50
2018-01-04T04:34:52.030Z,6.60
2018-01-04T04:37:19.457Z,6.60
2018-01-04T04:39:46.883Z,6.60
2018-01-04T04:42:14.314Z,6.50
2018-01-04T04:44:41.799Z,6.60
2018-01-04T04:47:09.353Z,6.60
2018-01-04T04:49:36.809Z,6.50
2018-01-04T04:52:04.457Z,6.60
2018-01-04T04:54:32.036Z,6.60
2018-01-04T04:56:59.486Z,6.60
2018-01-04T04:59:27.122Z,6.60
2018-01-04T05:01:54.710Z,6.60
2018-01-04T05:04:22.144Z,6.70
2018-01-04T05:06:49.565Z,6.70
2018-01-04T05:09:17.092Z,6.70
2018-01-04T05:11:44.717Z,6.60
2018-01-04T05:14:12.194Z,6.60
2018-01-04T05:16:39.644Z,6.60
2018-01-04T05:19:07.159Z,6.60
2018-01-04T05:21:34.587Z,6.70
2018-01-04T05:24:02.087Z,6.70
2018-01-04T05:26:29.602Z,6.70
2018-01-04T05:28:57.243Z,6.70
2018-01-04T05:31:24.822Z,6.70
2018-01-04T05:33:52.262Z,6.70
2018-01-04T05:36:19.689Z,6.70
2018-01-04T05:38:47.196Z,6.60
2018-01-04T05:41:14.829Z,6.60
2018-01-04T05:43:42.266Z,6.70
2018-01-04T05:46:10.682Z,6.70
2018-01-04T05:48:38.155Z,6.60
2018-01-04T05:51:05.709Z,6.60
2018-01-04T05:53:33.157Z,6.80
2018-01-04T05:56:00.590Z,6.80
2018-01-04T05:58:28.086Z,6.70
2018-01-04T06:00:55.730Z,6.70
2018-01-04T06:03:23.314Z,6.70
2018-01-04T06:05:50.954Z,6.60
2018-01-04T06:08:18.462Z,6.70
2018-01-04T06:10:45.990Z,6.70
2018-01-04T06:13:13.753Z,6.70
2018-01-04T06:15:41.385Z,6.80
2018-01-04T06:18:08.978Z,6.70
2018-01-04T06:20:36.939Z,6.80
2018-01-04T06:23:04.514Z,6.80
2018-01-04T06:25:32.146Z,6.90
2018-01-04T06:27:59.657Z,6.80
2018-01-04T06:30:27.090Z,6.80
2018-01-04T06:32:54.650Z,6.70
2018-01-04T06:35:22.274Z,6.80
2018-01-04T06:37:49.874Z,6.80
2018-01-04T06:40:17.298Z,6.80
2018-01-04T06:42:44.742Z,6.80
2018-01-04T06:45:12.176Z,6.80
2018-01-04T06:47:39.597Z,6.80
2018-01-04T06:50:07.159Z,6.80
2018-01-04T06:52:34.926Z,6.80
2018-01-04T06:55:02.695Z,6.80
2018-01-04T06:57:30.322Z,6.80
2018-01-04T06:59:57.914Z,6.80
2018-01-04T07:02:25.562Z,6.90
2018-01-04T07:04:53.139Z,6.80
2018-01-04T07:07:20.579Z,6.80
2018-01-04T07:09:47.993Z,6.80
2018-01-04T07:12:16.316Z,6.90
2018-01-04T07:14:43.805Z,6.80
2018-01-04T07:17:11.256Z,6.90
2018-01-04T07:19:38.677Z,6.70
2018-01-04T07:22:06.263Z,6.70
2018-01-04T07:24:33.724Z,6.90
2018-01-04T07:27:01.361Z,6.90
2018-01-04T07:29:28.937Z,6.90
2018-01-04T07:31:56.402Z,6.80
2018-01-04T07:34:23.839Z,6.90
2018-01-04T07:36:51.266Z,6.90
2018-01-04T07:39:19.598Z,6.90
2018-01-04T07:41:47.209Z,6.80
2018-01-04T07:44:14.789Z,6.90
2018-01-04T07:46:42.378Z,6.80
2018-01-04T07:49:10.010Z,6.90
2018-01-04T07:51:37.597Z,6.90
2018-01-04T07:54:05.053Z,6.90
2018-01-04T07:56:32.497Z,6.90
2018-01-04T07:58:59.926Z,6.90
2018-01-04T08:01:27.353Z,6.90
2018-01-04T08:03:54.798Z,7.00
2018-01-04T08:06:22.213Z,7.00
2018-01-04T08:08:49.706Z,7.00
2018-01-04T08:11:17.141Z,7.20
2018-01-04T08:13:44.621Z,7.00
2018-01-04T08:16:12.081Z,6.90
2018-01-04T08:18:39.550Z,7.00
2018-01-04T08:21:07.085Z,7.00
2018-01-04T08:23:34.518Z,7.10
2018-01-04T08:26:02.018Z,7.10
2018-01-04T08:28:29.770Z,7.10
2018-01-04T08:30:57.192Z,7.10
2018-01-04T08:33:24.609Z,7.10
2018-01-04T08:35:52.150Z,7.00
2018-01-04T08:38:19.577Z,7.10
2018-01-04T08:40:47.061Z,7.10
2018-01-04T08:43:14.522Z,7.10
2018-01-04T08:45:42.150Z,7.10
2018-01-04T08:48:09.741Z,7.20
2018-01-04T08:50:37.382Z,7.10
2018-01-04T08:53:04.962Z,7.20
2018-01-04T08:55:32.402Z,7.20
2018-01-04T08:57:59.886Z,7.20
2018-01-04T09:00:27.729Z,7.20
2018-01-04T09:02:55.287Z,7.20
2018-01-04T09:05:22.738Z,7.20
2018-01-04T09:07:50.231Z,7.20
2018-01-04T09:10:17.691Z,7.30
2018-01-04T09:12:45.150Z,7.30
2018-01-04T09:15:12.703Z,7.30
2018-01-04T09:17:40.125Z,7.30
2018-01-04T09:20:07.605Z,7.30
2018-01-04T09:22:35.022Z,7.30
2018-01-04T09:25:02.533Z,7.30
2018-01-04T09:27:29.999Z,7.30
2018-01-04T09:29:57.454Z,7.40
2018-01-04T09:32:24.893Z,7.40
2018-01-04T09:34:52.318Z,7.30
2018-01-04T09:37:19.733Z,7.30
2018-01-04T09:39:47.186Z,7.40
2018-01-04T09:42:14.642Z,7.40
2018-01-04T09:44:42.061Z,7.30
2018-01-04T09:47:09.653Z,7.40
2018-01-04T09:49:37.190Z,7.40
2018-01-04T09:52:04.782Z,7.40
2018-01-04T09:54:33.414Z,7.50
2018-01-04T09:57:01.813Z,7.50
2018-01-04T09:59:29.347Z,7.50
2018-01-04T10:01:56.857Z,7.40
2018-01-04T10:04:24.486Z,7.50
2018-01-04T10:06:51.914Z,7.50
2018-01-04T10:09:19.346Z,7.50
2018-01-04T10:11:47.006Z,7.50
2018-01-04T10:14:14.458Z,7.50
2018-01-04T10:16:42.104Z,7.60
2018-01-04T10:19:09.682Z,7.50
2018-01-04T10:21:37.446Z,7.50
2018-01-04T10:24:05.210Z,7.50
2018-01-04T10:26:32.654Z,7.50
2018-01-04T10:29:00.082Z,7.50
2018-01-04T10:31:27.506Z,7.60
2018-01-04T10:33:54.934Z,7.60
2018-01-04T10:36:22.399Z,7.70
2018-01-04T10:38:49.886Z,7.60
2018-01-04T10:41:17.611Z,7.70
2018-01-04T10:43:45.035Z,7.70
2018-01-04T10:46:13.254Z,7.80
2018-01-04T10:48:41.022Z,7.70
2018-01-04T10:51:08.645Z,7.80
2018-01-04T10:53:36.079Z,7.80
2018-01-04T10:56:04.266Z,7.70
2018-01-04T10:58:31.762Z,7.70
2018-01-04T11:00:59.230Z,7.70
2018-01-04T11:03:26.989Z,7.70
2018-01-04T11:05:54.621Z,7.70
2018-01-04T11:08:22.109Z,7.60
2018-01-04T11:10:49.673Z,7.70
2018-01-04T11:13:17.439Z,7.70
2018-01-04T11:15:45.069Z,7.70
2018-01-04T11:18:12.856Z,7.70
2018-01-04T11:20:40.326Z,7.80
2018-01-04T11:23:07.881Z,7.80
2018-01-04T11:25:35.649Z,7.80
2018-01-04T11:28:03.074Z,7.80
2018-01-04T11:30:30.507Z,7.90
2018-01-04T11:32:57.933Z,7.80
2018-01-04T11:35:25.382Z,7.80
2018-01-04T11:37:52.949Z,7.80
2018-01-04T11:40:20.399Z,7.80
2018-01-04T11:42:47.854Z,7.80
2018-01-04T11:45:15.504Z,7.90
2018-01-04T11:47:42.946Z,7.80
2018-01-04T11:50:10.530Z,7.90
2018-01-04T11:52:38.170Z,7.80
2018-01-04T11:55:05.763Z,7.80
2018-01-04T11:57:33.186Z,8.00
2018-01-04T12:00:00.618Z,8.00
2018-01-04T12:02:28.042Z,8.00
2018-01-04T12:04:55.505Z,8.00
2018-01-04T12:07:23.049Z,8.00
2018-01-04T12:09:50.506Z,8.00
2018-01-04T12:12:18.133Z,8.10
2018-01-04T12:14:45.658Z,8.00
2018-01-04T12:17:13.095Z,7.90
2018-01-04T12:19:40.651Z,8.00
2018-01-04T12:22:08.107Z,8.10
2018-01-04T12:24:35.752Z,8.10
2018-01-04T12:27:03.165Z,8.10
2018-01-04T12:29:31.355Z,8.00
2018-01-04T12:31:58.851Z,8.00
2018-01-04T12:34:26.273Z,8.10
2018-01-04T12:36:53.770Z,8.10
2018-01-04T12:39:21.409Z,8.10
2018-01-04T12:41:48.995Z,8.10
2018-01-04T12:44:16.418Z,8.00
2018-01-04T12:46:43.918Z,8.10
2018-01-04T12:49:11.555Z,8.10
2018-01-04T12:51:39.139Z,8.10
2018-01-04T12:54:06.901Z,8.10
2018-01-04T12:56:34.430Z,8.10
2018-01-04T12:59:02.006Z,8.10
2018-01-04T13:01:29.585Z,8.00
2018-01-04T13:03:57.006Z,8.00
2018-01-04T13:06:24.435Z,8.00
2018-01-04T13:08:51.861Z,7.90
2018-01-04T13:11:19.410Z,7.90
2018-01-04T13:13:46.951Z,7.90
2018-01-04T13:16:14.543Z,7.80
2018-01-04T13:18:42.094Z,7.90
2018-01-04T13:21:09.743Z,7.80
2018-01-04T13:23:37.182Z,7.80
2018-01-04T13:26:04.765Z,7.80
2018-01-04T13:28:32.398Z,7.70
2018-01-04T13:30:59.989Z,7.60
2018-01-04T13:33:27.451Z,7.70
2018-01-04T13:35:54.881Z,7.60
2018-01-04T13:38:22.361Z,7.60
2018-01-04T13:40:50.002Z,7.50
2018-01-04T13:43:17.785Z,7.40
2018-01-04T13:45:45.222Z,7.40
2018-01-04T13:48:12.737Z,7.40
2018-01-04T13:50:40.270Z,7.30
2018-01-04T13:53:07.738Z,7.30
2018-01-04T13:55:35.499Z,7.30
2018-01-04T13:58:02.922Z,7.30
2018-01-04T14:00:30.405Z,7.20
2018-01-04T14:02:57.829Z,7.20
2018-01-04T14:05:25.258Z,7.20
2018-01-04T14:07:52.687Z,7.20
2018-01-04T14:10:20.246Z,7.20
2018-01-04T14:12:48.010Z,7.20
2018-01-04T14:15:15.766Z,7.20
2018-01-04T14:17:43.242Z,7.30
2018-01-04T14:20:10.998Z,7.20
2018-01-04T14:22:38.774Z,7.20
2018-01-04T14:25:06.522Z,7.20
2018-01-04T14:27:34.158Z,7.20
2018-01-04T14:30:01.590Z,7.20
2018-01-04T14:32:29.789Z,7.30
2018-01-04T14:34:57.281Z,7.20
2018-01-04T14:37:24.719Z,7.20
2018-01-04T14:39:52.137Z,7.20
2018-01-04T14:42:19.649Z,7.20
2018-01-04T14:44:47.074Z,7.20
2018-01-04T14:47:14.659Z,7.30
2018-01-04T14:49:42.342Z,7.30
2018-01-04T14:52:09.778Z,7.30
2018-01-04T14:54:37.257Z,7.30
2018-01-04T14:57:04.900Z,7.30
2018-01-04T14:59:32.373Z,7.30
2018-01-04T15:01:59.862Z,7.30
2018-01-04T15:04:27.290Z,7.30
2018-01-04T15:06:54.732Z,7.30
2018-01-04T15:09:22.152Z,7.30
2018-01-04T15:11:50.383Z,7.40
2018-01-04T15:14:18.146Z,7.30
2018-01-04T15:16:45.769Z,7.50
2018-01-04T15:19:13.261Z,7.60
2018-01-04T15:21:41.017Z,7.50
2018-01-04T15:24:08.481Z,7.70
2018-01-04T15:26:35.923Z,7.70
2018-01-04T15:29:03.401Z,7.80
2018-01-04T15:31:30.846Z,7.80
2018-01-04T15:33:58.254Z,7.90
2018-01-04T15:36:26.494Z,8.00
2018-01-04T15:38:54.256Z,7.90
2018-01-04T15:41:21.685Z,8.10
2018-01-04T15:43:49.118Z,8.10
2018-01-04T15:46:16.549Z,8.20
2018-01-04T15:48:44.097Z,8.20
2018-01-04T15:51:11.531Z,8.30
2018-01-04T15:53:38.973Z,8.40
2018-01-04T15:56:06.406Z,8.40
2018-01-04T15:58:33.921Z,8.50
2018-01-04T16:01:01.345Z,8.40
2018-01-04T16:03:28.845Z,8.50
2018-01-04T16:05:56.279Z,8.50
2018-01-04T16:08:23.713Z,8.50
2018-01-04T16:10:51.141Z,8.60
2018-01-04T16:13:18.589Z,8.60
2018-01-04T16:15:46.131Z,8.60
2018-01-04T16:18:13.554Z,8.60
2018-01-04T16:20:41.039Z,8.70
2018-01-04T16:23:08.672Z,8.70
2018-01-04T16:25:36.211Z,8.70
2018-01-04T16:28:03.638Z,8.70
2018-01-04T16:30:32.096Z,8.80
2018-01-04T16:32:59.530Z,8.80
2018-01-04T16:35:27.022Z,8.80
2018-01-04T16:37:54.477Z,8.80
2018-01-04T16:40:22.110Z,8.90
2018-01-04T16:42:49.543Z,8.90
2018-01-04T16:45:18.083Z,8.90
2018-01-04T16:47:45.845Z,8.90
2018-01-04T16:50:13.307Z,9.00
2018-01-04T16:52:40.737Z,9.00
2018-01-04T16:55:08.217Z,9.00
2018-01-04T16:57:35.650Z,9.00
2018-01-04T17:00:03.161Z,9.00
2018-01-04T17:02:30.768Z,9.10
2018-01-04T17:04:58.358Z,9.00
2018-01-04T17:07:25.824Z,9.10
2018-01-04T17:09:53.445Z,9.10
2018-01-04T17:12:21.038Z,9.20
2018-01-04T17:14:48.485Z,9.30
2018-01-04T17:17:15.906Z,9.40
2018-01-04T17:19:43.346Z,9.50
2018-01-04T17:22:11.546Z,9.60
2018-01-04T17:24:39.245Z,9.60
2018-01-04T17:27:06.683Z,9.70
2018-01-04T17:29:34.167Z,9.70
2018-01-04T17:32:01.627Z,9.70
2018-01-04T17:34:29.390Z,9.60
2018-01-04T17:36:56.847Z,9.60
2018-01-04T17:39:24.302Z,9.70
2018-01-04T17:41:51.763Z,9.70
2018-01-04T17:44:19.194Z,9.80
2018-01-04T17:46:46.626Z,9.70
2018-01-04T17:49:14.133Z,9.70
2018-01-04T17:51:41.596Z,9.60
2018-01-04T17:54:09.026Z,9.70
2018-01-04T17:56:36.511Z,9.70
2018-01-04T17:59:04.270Z,9.70
2018-01-04T18:01:31.913Z,9.80
2018-01-04T18:03:59.361Z,9.90
2018-01-04T18:06:26.953Z,9.90
2018-01-04T18:08:54.720Z,10.00
2018-01-04T18:11:22.158Z,10.00
2018-01-04T18:13:49.642Z,10.00
2018-01-04T18:16:17.094Z,10.00
2018-01-04T18:18:44.859Z,10.00
2018-01-04T18:21:12.630Z,10.00
2018-01-04T18:23:40.079Z,10.10
2018-01-04T18:26:07.519Z,10.00
2018-01-04T18:28:34.949Z,10.00
2018-01-04T18:31:02.386Z,10.10
2018-01-04T18:33:30.701Z,10.10
2018-01-04T18:35:58.299Z,10.10
2018-01-04T18:38:26.063Z,10.10
2018-01-04T18:40:53.833Z,10.10
2018-01-04T18:43:21.277Z,10.10
2018-01-04T18:45:48.725Z,10.00
2018-01-04T18:48:16.381Z,10.00
2018-01-04T18:50:43.967Z,10.00
2018-01-04T18:53:11.729Z,10.00
2018-01-04T18:55:39.494Z,10.00
2018-01-04T18:58:06.935Z,10.00
2018-01-04T19:00:34.394Z,9.90
2018-01-04T19:03:01.871Z,9.90
2018-01-04T19:05:29.307Z,9.90
2018-01-04T19:07:56.742Z,9.90
2018-01-04T19:10:24.238Z,9.80
2018-01-04T19:12:51.674Z,9.90
2018-01-04T19:15:19.105Z,9.90
2018-01-04T19:17:46.618Z,10.00
2018-01-04T19:20:14.249Z,10.00
2018-01-04T19:22:41.835Z,10.00
2018-01-04T19:25:09.469Z,10.00
2018-01-04T19:27:36.990Z,9.90
2018-01-04T19:30:04.518Z,9.90
2018-01-04T19:32:32.152Z,9.80
2018-01-04T19:34:59.737Z,9.70
2018-01-04T19:37:27.208Z,9.50
2018-01-04T19:39:54.658Z,9.40
2018-01-04T19:42:22.281Z,9.30
2018-01-04T19:44:49.883Z,9.30
2018-01-04T19:47:17.322Z,9.20
2018-01-04T19:49:44.759Z,9.20
2018-01-04T19:52:12.182Z,9.20
2018-01-04T19:54:39.612Z,9.20
2018-01-04T19:57:07.050Z,9.20
2018-01-04T19:59:34.526Z,9.30
2018-01-04T20:02:01.999Z,9.20
2018-01-04T20:04:29.537Z,9.20
2018-01-04T20:06:57.188Z,9.30
2018-01-04T20:09:24.625Z,9.40
2018-01-04T20:11:52.226Z,9.60
2018-01-04T20:14:19.667Z,9.40
2018-01-04T20:16:47.315Z,9.40
2018-01-04T20:19:15.490Z,9.40
2018-01-04T20:21:42.927Z,9.40
2018-01-04T20:24:10.429Z,9.30
2018-01-04T20:26:38.094Z,9.20
2018-01-04T20:29:05.659Z,9.20
2018-01-04T20:31:33.113Z,9.20
2018-01-04T20:34:00.749Z,9.20
2018-01-04T20:36:28.234Z,9.20
2018-01-04T20:38:55.800Z,9.20
2018-01-04T20:41:23.221Z,9.20
2018-01-04T20:43:50.649Z,9.20
2018-01-04T20:46:18.170Z,9.20
2018-01-04T20:48:45.603Z,9.20
2018-01-04T20:51:13.082Z,9.10
2018-01-04T20:53:40.533Z,9.20
2018-01-04T20:56:07.998Z,9.10
2018-01-04T20:58:35.425Z,9.10
2018-01-04T21:01:02.849Z,9.10
2018-01-04T21:03:30.337Z,9.00
2018-01-04T21:05:57.825Z,9.00
2018-01-04T21:08:25.594Z,9.10
2018-01-04T21:10:53.014Z,9.00
2018-01-04T21:13:20.504Z,9.00
2018-01-04T21:15:47.948Z,9.00
2018-01-04T21:18:15.382Z,9.00
2018-01-04T21:20:42.810Z,9.00
2018-01-04T21:23:10.254Z,8.90
2018-01-04T21:25:37.802Z,9.00
2018-01-04T21:28:05.250Z,8.90
2018-01-04T21:30:32.682Z,8.80
2018-01-04T21:33:00.106Z,8.90
2018-01-04T21:35:27.538Z,8.80
2018-01-04T21:37:54.958Z,8.80
2018-01-04T21:40:22.546Z,8.80
2018-01-04T21:42:50.319Z,8.70
2018-01-04T21:45:17.818Z,8.60
2018-01-04T21:47:45.434Z,8.50
2018-01-04T21:50:12.998Z,8.50
2018-01-04T21:52:40.647Z,8.60
2018-01-04T21:55:08.130Z,8.50
2018-01-04T21:57:35.681Z,8.40
2018-01-04T22:00:03.116Z,8.40
2018-01-04T22:02:30.545Z,8.40
2018-01-04T22:04:57.962Z,8.40
2018-01-04T22:07:25.398Z,8.30
2018-01-04T22:09:52.865Z,8.30
2018-01-04T22:12:20.422Z,8.30
2018-01-04T22:14:48.174Z,8.30
2018-01-04T22:17:15.647Z,8.30
2018-01-04T22:19:43.171Z,8.20
2018-01-04T22:22:10.751Z,8.20
2018-01-04T22:24:38.230Z,8.20
2018-01-04T22:27:05.676Z,8.20
2018-01-04T22:29:33.095Z,8.20
2018-01-04T22:32:01.603Z,8.10
2018-01-04T22:34:29.035Z,8.10
2018-01-04T22:36:56.490Z,8.10
2018-01-04T22:39:23.914Z,8.10
2018-01-04T22:41:51.458Z,8.10
2018-01-04T22:44:19.226Z,8.10
2018-01-04T22:46:46.641Z,8.10
2018-01-04T22:49:14.131Z,8.10
2018-01-04T22:51:41.594Z,8.10
2018-01-04T22:54:09.353Z,8.10
2018-01-04T22:56:36.994Z,8.10
2018-01-04T22:59:04.464Z,8.10
2018-01-04T23:01:31.881Z,8.10
2018-01-04T23:04:00.418Z,8.10
2018-01-04T23:06:27.841Z,8.10
2018-01-04T23:08:55.318Z,8.10
2018-01-04T23:11:22.738Z,8.10
2018-01-04T23:13:50.162Z,8.10
2018-01-04T23:16:17.606Z,8.10
2018-01-04T23:18:45.158Z,8.10
2018-01-04T23:21:12.793Z,8.10
2018-01-04T23:23:40.290Z,8.10
2018-01-04T23:26:07.750Z,8.10
2018-01-04T23:28:35.297Z,8.10
2018-01-04T23:31:02.738Z,8.10
2018-01-04T23:33:30.214Z,8.00
2018-01-04T23:35:57.678Z,8.10
2018-01-04T23:38:25.107Z,8.00
2018-01-04T23:40:52.594Z,8.00
2018-01-04T23:43:20.018Z,8.00
2018-01-04T23:45:47.505Z,8.00
2018-01-04T23:48:15.142Z,8.00
2018-01-04T23:50:42.733Z,8.00
2018-01-04T23:53:10.498Z,8.00
2018-01-04T23:55:37.929Z,8.00
2018-01-04T23:58:05.367Z,8.00
